sensor_id;sensor_type;location;lat;lon;timestamp;temperature;humidity
3492;DHT22;1760;52.480;13.422;2024-02-14T00:00:24;5.30;99.90
3492;DHT22;1760;52.480;13.422;2024-02-14T00:02:51;5.30;99.90
3492;DHT22;1760;52.480;13.422;2024-02-14T00:05:18;5.30;99.90
3492;DHT22;1760;52.480;13.422;2024-02-14T00:07:45;5.40;99.90
3492;DHT22;1760;52.480;13.422;2024-02-14T00:10:12;5.30;99.90
3492;DHT22;1760;52.480;13.422;2024-02-14T00:12:38;5.40;99.90
3492;DHT22;1760;52.480;13.422;2024-02-14T00:15:08;5.40;99.90
3492;DHT22;1760;52.480;13.422;2024-02-14T00:17:35;5.40;99.90
3492;DHT22;1760;52.480;13.422;2024-02-14T00:20:02;5.40;99.90
3492;DHT22;1760;52.480;13.422;2024-02-14T00:22:30;5.40;99.90
3492;DHT22;1760;52.480;13.422;2024-02-14T00:24:57;5.40;99.90
3492;DHT22;1760;52.480;13.422;2024-02-14T00:27:24;5.40;99.90
3492;DHT22;1760;52.480;13.422;2024-02-14T00:29:52;5.40;99.90
3492;DHT22;1760;52.480;13.422;2024-02-14T00:32:20;5.40;99.90
3492;DHT22;1760;52.480;13.422;2024-02-14T00:34:46;5.30;99.90
3492;DHT22;1760;52.480;13.422;2024-02-14T00:37:15;5.30;99.90
3492;DHT22;1760;52.480;13.422;2024-02-14T00:39:42;5.30;99.90
3492;DHT22;1760;52.480;13.422;2024-02-14T00:42:09;5.30;99.90
3492;DHT22;1760;52.480;13.422;2024-02-14T00:44:36;5.30;99.90
3492;DHT22;1760;52.480;13.422;2024-02-14T00:47:03;5.30;99.90
3492;DHT22;1760;52.480;13.422;2024-02-14T00:49:34;5.30;99.90
3492;DHT22;1760;52.480;13.422;2024-02-14T00:52:01;5.20;99.90
3492;DHT22;1760;52.480;13.422;2024-02-14T00:54:28;5.20;99.90
3492;DHT22;1760;52.480;13.422;2024-02-14T00:56:55;5.20;99.90
3492;DHT22;1760;52.480;13.422;2024-02-14T00:59:22;5.20;99.90
3492;DHT22;1760;52.480;13.422;2024-02-14T01:01:50;5.20;99.90
3492;DHT22;1760;52.480;13.422;2024-02-14T01:04:17;5.20;99.90
3492;DHT22;1760;52.480;13.422;2024-02-14T01:06:45;5.20;99.90
3492;DHT22;1760;52.480;13.422;2024-02-14T01:09:13;5.20;99.90
3492;DHT22;1760;52.480;13.422;2024-02-14T01:11:40;5.20;99.90
3492;DHT22;1760;52.480;13.422;2024-02-14T01:14:07;5.20;99.90
3492;DHT22;1760;52.480;13.422;2024-02-14T01:16:34;5.20;99.90
3492;DHT22;1760;52.480;13.422;2024-02-14T01:19:08;5.20;99.90
3492;DHT22;1760;52.480;13.422;2024-02-14T01:21:35;5.20;99.90
3492;DHT22;1760;52.480;13.422;2024-02-14T01:24:04;5.20;99.90
3492;DHT22;1760;52.480;13.422;2024-02-14T01:26:31;5.20;99.90
3492;DHT22;1760;52.480;13.422;2024-02-14T01:28:58;5.20;99.90
3492;DHT22;1760;52.480;13.422;2024-02-14T01:31:26;5.20;99.90
3492;DHT22;1760;52.480;13.422;2024-02-14T01:33:53;5.20;99.90
3492;DHT22;1760;52.480;13.422;2024-02-14T01:36:20;5.20;99.90
3492;DHT22;1760;52.480;13.422;2024-02-14T01:38:48;5.20;99.90
3492;DHT22;1760;52.480;13.422;2024-02-14T01:41:16;5.20;99.90
3492;DHT22;1760;52.480;13.422;2024-02-14T01:43:44;5.30;99.90
3492;DHT22;1760;52.480;13.422;2024-02-14T01:46:11;5.30;99.90
3492;DHT22;1760;52.480;13.422;2024-02-14T01:48:39;5.20;99.90
3492;DHT22;1760;52.480;13.422;2024-02-14T01:51:11;5.20;99.90
3492;DHT22;1760;52.480;13.422;2024-02-14T01:53:39;5.20;99.90
3492;DHT22;1760;52.480;13.422;2024-02-14T01:56:08;5.20;99.90
3492;DHT22;1760;52.480;13.422;2024-02-14T01:58:36;5.30;99.90
3492;DHT22;1760;52.480;13.422;2024-02-14T02:01:04;5.30;99.90
3492;DHT22;1760;52.480;13.422;2024-02-14T02:03:33;5.20;99.90
3492;DHT22;1760;52.480;13.422;2024-02-14T02:06:02;5.20;99.90
3492;DHT22;1760;52.480;13.422;2024-02-14T02:08:29;5.30;99.90
3492;DHT22;1760;52.480;13.422;2024-02-14T02:10:59;5.30;99.90
3492;DHT22;1760;52.480;13.422;2024-02-14T02:13:26;5.30;99.90
3492;DHT22;1760;52.480;13.422;2024-02-14T02:15:54;5.30;99.90
3492;DHT22;1760;52.480;13.422;2024-02-14T02:18:22;5.20;99.90
3492;DHT22;1760;52.480;13.422;2024-02-14T02:20:51;5.20;99.90
3492;DHT22;1760;52.480;13.422;2024-02-14T02:23:19;5.20;99.90
3492;DHT22;1760;52.480;13.422;2024-02-14T02:25:47;5.20;99.90
3492;DHT22;1760;52.480;13.422;2024-02-14T02:28:14;5.10;99.90
3492;DHT22;1760;52.480;13.422;2024-02-14T02:30:41;5.10;99.90
3492;DHT22;1760;52.480;13.422;2024-02-14T02:33:08;5.10;99.90
3492;DHT22;1760;52.480;13.422;2024-02-14T02:35:35;5.10;99.90
3492;DHT22;1760;52.480;13.422;2024-02-14T02:38:01;5.10;99.90
3492;DHT22;1760;52.480;13.422;2024-02-14T02:40:30;5.10;99.90
3492;DHT22;1760;52.480;13.422;2024-02-14T02:42:57;5.10;99.90
3492;DHT22;1760;52.480;13.422;2024-02-14T02:45:24;5.00;99.90
3492;DHT22;1760;52.480;13.422;2024-02-14T02:47:51;5.10;99.90
3492;DHT22;1760;52.480;13.422;2024-02-14T02:50:18;5.00;99.90
3492;DHT22;1760;52.480;13.422;2024-02-14T02:52:45;5.10;99.90
3492;DHT22;1760;52.480;13.422;2024-02-14T02:55:12;5.10;99.90
3492;DHT22;1760;52.480;13.422;2024-02-14T02:57:42;5.00;99.90
3492;DHT22;1760;52.480;13.422;2024-02-14T03:00:10;5.10;99.90
3492;DHT22;1760;52.480;13.422;2024-02-14T03:02:39;5.00;99.90
3492;DHT22;1760;52.480;13.422;2024-02-14T03:05:09;5.00;99.90
3492;DHT22;1760;52.480;13.422;2024-02-14T03:07:43;5.00;99.90
3492;DHT22;1760;52.480;13.422;2024-02-14T03:10:10;5.00;99.90
3492;DHT22;1760;52.480;13.422;2024-02-14T03:12:39;4.90;99.90
3492;DHT22;1760;52.480;13.422;2024-02-14T03:15:08;4.90;99.90
3492;DHT22;1760;52.480;13.422;2024-02-14T03:17:36;4.90;99.90
3492;DHT22;1760;52.480;13.422;2024-02-14T03:20:03;4.90;99.90
3492;DHT22;1760;52.480;13.422;2024-02-14T03:22:35;4.90;99.90
3492;DHT22;1760;52.480;13.422;2024-02-14T03:25:02;4.90;99.90
3492;DHT22;1760;52.480;13.422;2024-02-14T03:27:29;4.90;99.90
3492;DHT22;1760;52.480;13.422;2024-02-14T03:29:57;4.90;99.90
3492;DHT22;1760;52.480;13.422;2024-02-14T03:32:31;4.80;99.90
3492;DHT22;1760;52.480;13.422;2024-02-14T03:34:58;4.80;99.90
3492;DHT22;1760;52.480;13.422;2024-02-14T03:37:26;4.80;99.90
3492;DHT22;1760;52.480;13.422;2024-02-14T03:39:53;4.70;99.90
3492;DHT22;1760;52.480;13.422;2024-02-14T03:42:20;4.80;99.90
3492;DHT22;1760;52.480;13.422;2024-02-14T03:44:46;4.80;99.90
3492;DHT22;1760;52.480;13.422;2024-02-14T03:47:13;4.90;99.90
3492;DHT22;1760;52.480;13.422;2024-02-14T03:49:41;4.90;99.90
3492;DHT22;1760;52.480;13.422;2024-02-14T03:52:08;4.90;99.90
3492;DHT22;1760;52.480;13.422;2024-02-14T03:54:37;4.90;99.90
3492;DHT22;1760;52.480;13.422;2024-02-14T03:57:04;5.00;99.90
3492;DHT22;1760;52.480;13.422;2024-02-14T03:59:36;5.00;99.90
3492;DHT22;1760;52.480;13.422;2024-02-14T04:02:04;4.90;99.90
3492;DHT22;1760;52.480;13.422;2024-02-14T04:04:32;5.00;99.90
3492;DHT22;1760;52.480;13.422;2024-02-14T04:07:01;4.90;99.90
3492;DHT22;1760;52.480;13.422;2024-02-14T04:09:28;5.00;99.90
3492;DHT22;1760;52.480;13.422;2024-02-14T04:11:55;4.90;99.90
3492;DHT22;1760;52.480;13.422;2024-02-14T04:14:22;4.90;99.90
3492;DHT22;1760;52.480;13.422;2024-02-14T04:16:49;4.90;99.90
3492;DHT22;1760;52.480;13.422;2024-02-14T04:19:16;4.80;99.90
3492;DHT22;1760;52.480;13.422;2024-02-14T04:21:44;4.80;99.90
3492;DHT22;1760;52.480;13.422;2024-02-14T04:24:12;4.90;99.90
3492;DHT22;1760;52.480;13.422;2024-02-14T04:26:39;4.80;99.90
3492;DHT22;1760;52.480;13.422;2024-02-14T04:29:07;4.80;99.90
3492;DHT22;1760;52.480;13.422;2024-02-14T04:31:34;4.80;99.90
3492;DHT22;1760;52.480;13.422;2024-02-14T04:34:01;4.80;99.90
3492;DHT22;1760;52.480;13.422;2024-02-14T04:36:28;4.80;99.90
3492;DHT22;1760;52.480;13.422;2024-02-14T04:38:57;4.80;99.90
3492;DHT22;1760;52.480;13.422;2024-02-14T04:41:26;4.80;99.90
3492;DHT22;1760;52.480;13.422;2024-02-14T04:43:53;4.80;99.90
3492;DHT22;1760;52.480;13.422;2024-02-14T04:46:20;4.80;99.90
3492;DHT22;1760;52.480;13.422;2024-02-14T04:48:48;4.80;99.90
3492;DHT22;1760;52.480;13.422;2024-02-14T04:51:14;4.80;99.90
3492;DHT22;1760;52.480;13.422;2024-02-14T04:53:41;4.90;99.90
3492;DHT22;1760;52.480;13.422;2024-02-14T04:56:08;4.90;99.90
3492;DHT22;1760;52.480;13.422;2024-02-14T04:58:38;4.90;99.90
3492;DHT22;1760;52.480;13.422;2024-02-14T05:01:05;4.90;99.90
3492;DHT22;1760;52.480;13.422;2024-02-14T05:03:32;4.80;99.90
3492;DHT22;1760;52.480;13.422;2024-02-14T05:06:01;4.80;99.90
3492;DHT22;1760;52.480;13.422;2024-02-14T05:08:28;4.80;99.90
3492;DHT22;1760;52.480;13.422;2024-02-14T05:10:55;4.80;99.90
3492;DHT22;1760;52.480;13.422;2024-02-14T05:13:21;4.80;99.90
3492;DHT22;1760;52.480;13.422;2024-02-14T05:15:50;4.80;99.90
3492;DHT22;1760;52.480;13.422;2024-02-14T05:18:17;4.90;99.90
3492;DHT22;1760;52.480;13.422;2024-02-14T05:20:44;5.00;99.90
3492;DHT22;1760;52.480;13.422;2024-02-14T05:23:12;5.00;99.90
3492;DHT22;1760;52.480;13.422;2024-02-14T05:25:38;5.10;99.90
3492;DHT22;1760;52.480;13.422;2024-02-14T05:28:06;5.10;99.90
3492;DHT22;1760;52.480;13.422;2024-02-14T05:30:33;5.10;99.90
3492;DHT22;1760;52.480;13.422;2024-02-14T05:33:03;5.10;99.90
3492;DHT22;1760;52.480;13.422;2024-02-14T05:35:30;5.10;99.90
3492;DHT22;1760;52.480;13.422;2024-02-14T05:37:57;5.10;99.90
3492;DHT22;1760;52.480;13.422;2024-02-14T05:40:23;5.10;99.90
3492;DHT22;1760;52.480;13.422;2024-02-14T05:42:52;5.10;99.90
3492;DHT22;1760;52.480;13.422;2024-02-14T05:45:21;5.10;99.90
3492;DHT22;1760;52.480;13.422;2024-02-14T05:47:48;5.10;99.90
3492;DHT22;1760;52.480;13.422;2024-02-14T05:50:16;5.10;99.90
3492;DHT22;1760;52.480;13.422;2024-02-14T05:52:43;5.10;99.90
3492;DHT22;1760;52.480;13.422;2024-02-14T05:55:09;5.10;99.90
3492;DHT22;1760;52.480;13.422;2024-02-14T05:57:36;5.10;99.90
3492;DHT22;1760;52.480;13.422;2024-02-14T06:00:04;5.10;99.90
3492;DHT22;1760;52.480;13.422;2024-02-14T06:02:31;5.10;99.90
3492;DHT22;1760;52.480;13.422;2024-02-14T06:04:58;5.10;99.90
3492;DHT22;1760;52.480;13.422;2024-02-14T06:07:26;5.10;99.90
3492;DHT22;1760;52.480;13.422;2024-02-14T06:09:56;5.20;99.90
3492;DHT22;1760;52.480;13.422;2024-02-14T06:12:24;5.20;99.90
3492;DHT22;1760;52.480;13.422;2024-02-14T06:14:53;5.20;99.90
3492;DHT22;1760;52.480;13.422;2024-02-14T06:17:19;5.20;99.90
3492;DHT22;1760;52.480;13.422;2024-02-14T06:19:46;5.20;99.90
3492;DHT22;1760;52.480;13.422;2024-02-14T06:22:15;5.20;99.90
3492;DHT22;1760;52.480;13.422;2024-02-14T06:24:43;5.20;99.90
3492;DHT22;1760;52.480;13.422;2024-02-14T06:27:11;5.20;99.90
3492;DHT22;1760;52.480;13.422;2024-02-14T06:29:42;5.20;99.90
3492;DHT22;1760;52.480;13.422;2024-02-14T06:32:09;5.20;99.90
3492;DHT22;1760;52.480;13.422;2024-02-14T06:34:35;5.20;99.90
3492;DHT22;1760;52.480;13.422;2024-02-14T06:37:02;5.20;99.90
3492;DHT22;1760;52.480;13.422;2024-02-14T06:39:29;5.30;99.90
3492;DHT22;1760;52.480;13.422;2024-02-14T06:41:58;5.20;99.90
3492;DHT22;1760;52.480;13.422;2024-02-14T06:44:25;5.30;99.90
3492;DHT22;1760;52.480;13.422;2024-02-14T06:46:54;5.30;99.90
3492;DHT22;1760;52.480;13.422;2024-02-14T06:49:23;5.40;99.90
3492;DHT22;1760;52.480;13.422;2024-02-14T06:51:50;5.30;99.90
3492;DHT22;1760;52.480;13.422;2024-02-14T06:54:16;5.30;99.90
3492;DHT22;1760;52.480;13.422;2024-02-14T06:56:45;5.30;99.90
3492;DHT22;1760;52.480;13.422;2024-02-14T06:59:15;5.40;99.90
3492;DHT22;1760;52.480;13.422;2024-02-14T07:01:41;5.50;99.90
3492;DHT22;1760;52.480;13.422;2024-02-14T07:04:08;5.50;99.90
3492;DHT22;1760;52.480;13.422;2024-02-14T07:06:36;5.50;99.90
3492;DHT22;1760;52.480;13.422;2024-02-14T07:09:03;5.50;99.90
3492;DHT22;1760;52.480;13.422;2024-02-14T07:11:30;5.50;99.90
3492;DHT22;1760;52.480;13.422;2024-02-14T07:13:56;5.60;99.90
3492;DHT22;1760;52.480;13.422;2024-02-14T07:16:28;5.70;99.90
3492;DHT22;1760;52.480;13.422;2024-02-14T07:18:55;5.80;99.90
3492;DHT22;1760;52.480;13.422;2024-02-14T07:21:22;5.80;99.90
3492;DHT22;1760;52.480;13.422;2024-02-14T07:23:52;5.80;99.90
3492;DHT22;1760;52.480;13.422;2024-02-14T07:26:19;5.80;99.90
3492;DHT22;1760;52.480;13.422;2024-02-14T07:28:46;5.70;99.90
3492;DHT22;1760;52.480;13.422;2024-02-14T07:31:13;5.80;99.90
3492;DHT22;1760;52.480;13.422;2024-02-14T07:33:41;5.80;99.90
3492;DHT22;1760;52.480;13.422;2024-02-14T07:36:08;5.90;99.90
3492;DHT22;1760;52.480;13.422;2024-02-14T07:38:35;6.00;99.90
3492;DHT22;1760;52.480;13.422;2024-02-14T07:41:02;6.00;99.90
3492;DHT22;1760;52.480;13.422;2024-02-14T07:43:29;6.10;99.90
3492;DHT22;1760;52.480;13.422;2024-02-14T07:45:56;6.20;99.90
3492;DHT22;1760;52.480;13.422;2024-02-14T07:48:23;6.20;99.90
3492;DHT22;1760;52.480;13.422;2024-02-14T07:50:51;6.20;99.90
3492;DHT22;1760;52.480;13.422;2024-02-14T07:53:18;6.20;99.90
3492;DHT22;1760;52.480;13.422;2024-02-14T07:55:45;6.20;99.90
3492;DHT22;1760;52.480;13.422;2024-02-14T07:58:11;6.30;99.90
3492;DHT22;1760;52.480;13.422;2024-02-14T08:00:38;6.30;99.90
3492;DHT22;1760;52.480;13.422;2024-02-14T08:03:05;6.30;99.90
3492;DHT22;1760;52.480;13.422;2024-02-14T08:05:32;6.20;99.90
3492;DHT22;1760;52.480;13.422;2024-02-14T08:08:00;6.30;99.90
3492;DHT22;1760;52.480;13.422;2024-02-14T08:10:27;6.30;99.90
3492;DHT22;1760;52.480;13.422;2024-02-14T08:12:54;6.30;99.90
3492;DHT22;1760;52.480;13.422;2024-02-14T08:15:21;6.40;99.90
3492;DHT22;1760;52.480;13.422;2024-02-14T08:17:48;6.40;99.90
3492;DHT22;1760;52.480;13.422;2024-02-14T08:20:15;6.40;99.90
3492;DHT22;1760;52.480;13.422;2024-02-14T08:22:43;6.50;99.90
3492;DHT22;1760;52.480;13.422;2024-02-14T08:25:11;6.50;99.90
3492;DHT22;1760;52.480;13.422;2024-02-14T08:27:38;6.60;99.90
3492;DHT22;1760;52.480;13.422;2024-02-14T08:30:06;6.60;99.90
3492;DHT22;1760;52.480;13.422;2024-02-14T08:32:34;6.80;99.90
3492;DHT22;1760;52.480;13.422;2024-02-14T08:35:01;6.90;99.90
3492;DHT22;1760;52.480;13.422;2024-02-14T08:37:28;6.90;99.90
3492;DHT22;1760;52.480;13.422;2024-02-14T08:39:56;6.90;99.90
3492;DHT22;1760;52.480;13.422;2024-02-14T08:42:25;6.90;99.90
3492;DHT22;1760;52.480;13.422;2024-02-14T08:44:52;6.90;99.90
3492;DHT22;1760;52.480;13.422;2024-02-14T08:47:18;6.90;99.90
3492;DHT22;1760;52.480;13.422;2024-02-14T08:49:45;6.80;99.90
3492;DHT22;1760;52.480;13.422;2024-02-14T08:52:12;6.80;99.90
3492;DHT22;1760;52.480;13.422;2024-02-14T08:54:39;6.90;99.90
3492;DHT22;1760;52.480;13.422;2024-02-14T08:57:06;6.90;99.90
3492;DHT22;1760;52.480;13.422;2024-02-14T08:59:34;6.90;99.90
3492;DHT22;1760;52.480;13.422;2024-02-14T09:02:01;7.00;99.90
3492;DHT22;1760;52.480;13.422;2024-02-14T09:04:28;7.00;99.90
3492;DHT22;1760;52.480;13.422;2024-02-14T09:06:56;7.10;99.90
3492;DHT22;1760;52.480;13.422;2024-02-14T09:09:23;7.10;99.90
3492;DHT22;1760;52.480;13.422;2024-02-14T09:11:50;7.20;99.90
3492;DHT22;1760;52.480;13.422;2024-02-14T09:14:20;7.20;99.90
3492;DHT22;1760;52.480;13.422;2024-02-14T09:16:50;7.30;99.90
3492;DHT22;1760;52.480;13.422;2024-02-14T09:19:16;7.20;99.90
3492;DHT22;1760;52.480;13.422;2024-02-14T09:21:43;7.30;99.90
3492;DHT22;1760;52.480;13.422;2024-02-14T09:24:10;7.30;99.90
3492;DHT22;1760;52.480;13.422;2024-02-14T09:26:38;7.30;99.90
3492;DHT22;1760;52.480;13.422;2024-02-14T09:29:05;7.30;99.90
3492;DHT22;1760;52.480;13.422;2024-02-14T09:31:32;7.30;99.90
3492;DHT22;1760;52.480;13.422;2024-02-14T09:34:00;7.40;99.90
3492;DHT22;1760;52.480;13.422;2024-02-14T09:36:27;7.40;99.90
3492;DHT22;1760;52.480;13.422;2024-02-14T09:38:54;7.50;99.90
3492;DHT22;1760;52.480;13.422;2024-02-14T09:41:33;7.50;99.90
3492;DHT22;1760;52.480;13.422;2024-02-14T09:44:03;7.50;99.90
3492;DHT22;1760;52.480;13.422;2024-02-14T09:46:30;7.60;99.90
3492;DHT22;1760;52.480;13.422;2024-02-14T09:49:00;7.60;99.90
3492;DHT22;1760;52.480;13.422;2024-02-14T09:51:27;7.60;99.90
3492;DHT22;1760;52.480;13.422;2024-02-14T09:53:55;7.60;99.90
3492;DHT22;1760;52.480;13.422;2024-02-14T09:56:23;7.60;99.90
3492;DHT22;1760;52.480;13.422;2024-02-14T09:58:51;7.60;99.90
3492;DHT22;1760;52.480;13.422;2024-02-14T10:01:21;7.60;99.90
3492;DHT22;1760;52.480;13.422;2024-02-14T10:03:49;7.60;99.90
3492;DHT22;1760;52.480;13.422;2024-02-14T10:06:18;7.50;99.90
3492;DHT22;1760;52.480;13.422;2024-02-14T10:08:46;7.50;99.90
3492;DHT22;1760;52.480;13.422;2024-02-14T10:11:14;7.50;99.90
3492;DHT22;1760;52.480;13.422;2024-02-14T10:13:44;7.50;99.90
3492;DHT22;1760;52.480;13.422;2024-02-14T10:16:14;7.50;99.90
3492;DHT22;1760;52.480;13.422;2024-02-14T10:18:41;7.50;99.90
3492;DHT22;1760;52.480;13.422;2024-02-14T10:21:13;7.60;99.90
3492;DHT22;1760;52.480;13.422;2024-02-14T10:23:43;7.60;99.90
3492;DHT22;1760;52.480;13.422;2024-02-14T10:26:12;7.60;99.90
3492;DHT22;1760;52.480;13.422;2024-02-14T10:28:41;7.60;99.90
3492;DHT22;1760;52.480;13.422;2024-02-14T10:31:10;7.70;99.90
3492;DHT22;1760;52.480;13.422;2024-02-14T10:33:37;7.70;99.90
3492;DHT22;1760;52.480;13.422;2024-02-14T10:36:07;7.80;99.90
3492;DHT22;1760;52.480;13.422;2024-02-14T10:38:34;7.80;99.90
3492;DHT22;1760;52.480;13.422;2024-02-14T10:41:03;7.80;99.90
3492;DHT22;1760;52.480;13.422;2024-02-14T10:43:30;7.90;99.90
3492;DHT22;1760;52.480;13.422;2024-02-14T10:46:01;7.90;99.90
3492;DHT22;1760;52.480;13.422;2024-02-14T10:48:31;7.90;99.90
3492;DHT22;1760;52.480;13.422;2024-02-14T10:51:02;7.90;99.90
3492;DHT22;1760;52.480;13.422;2024-02-14T10:53:32;7.90;99.90
3492;DHT22;1760;52.480;13.422;2024-02-14T10:56:00;7.90;99.90
3492;DHT22;1760;52.480;13.422;2024-02-14T10:58:30;7.90;99.90
3492;DHT22;1760;52.480;13.422;2024-02-14T11:00:58;7.90;99.90
3492;DHT22;1760;52.480;13.422;2024-02-14T11:03:27;7.90;99.90
3492;DHT22;1760;52.480;13.422;2024-02-14T11:05:54;8.00;99.90
3492;DHT22;1760;52.480;13.422;2024-02-14T11:08:28;8.10;99.90
3492;DHT22;1760;52.480;13.422;2024-02-14T11:10:59;8.30;99.90
3492;DHT22;1760;52.480;13.422;2024-02-14T11:13:26;8.40;99.90
3492;DHT22;1760;52.480;13.422;2024-02-14T11:15:56;8.50;99.90
3492;DHT22;1760;52.480;13.422;2024-02-14T11:18:25;8.60;99.90
3492;DHT22;1760;52.480;13.422;2024-02-14T11:20:52;8.60;99.90
3492;DHT22;1760;52.480;13.422;2024-02-14T11:23:22;8.60;99.90
3492;DHT22;1760;52.480;13.422;2024-02-14T11:25:49;8.60;99.90
3492;DHT22;1760;52.480;13.422;2024-02-14T11:28:17;8.60;99.90
3492;DHT22;1760;52.480;13.422;2024-02-14T11:30:45;8.60;99.90
3492;DHT22;1760;52.480;13.422;2024-02-14T11:33:17;8.60;99.90
3492;DHT22;1760;52.480;13.422;2024-02-14T11:35:46;8.70;99.90
3492;DHT22;1760;52.480;13.422;2024-02-14T11:38:13;8.70;99.90
3492;DHT22;1760;52.480;13.422;2024-02-14T11:40:40;8.60;99.90
3492;DHT22;1760;52.480;13.422;2024-02-14T11:43:11;8.60;99.90
3492;DHT22;1760;52.480;13.422;2024-02-14T11:45:39;8.50;99.90
3492;DHT22;1760;52.480;13.422;2024-02-14T11:48:08;8.50;99.90
3492;DHT22;1760;52.480;13.422;2024-02-14T11:50:39;8.50;99.90
3492;DHT22;1760;52.480;13.422;2024-02-14T11:53:06;8.50;99.90
3492;DHT22;1760;52.480;13.422;2024-02-14T11:55:35;8.60;99.90
3492;DHT22;1760;52.480;13.422;2024-02-14T11:58:06;8.60;99.90
3492;DHT22;1760;52.480;13.422;2024-02-14T12:00:33;8.60;99.90
3492;DHT22;1760;52.480;13.422;2024-02-14T12:03:01;8.60;99.90
3492;DHT22;1760;52.480;13.422;2024-02-14T12:05:30;8.60;99.90
3492;DHT22;1760;52.480;13.422;2024-02-14T12:07:58;8.60;99.90
3492;DHT22;1760;52.480;13.422;2024-02-14T12:10:26;8.70;99.90
3492;DHT22;1760;52.480;13.422;2024-02-14T12:12:53;8.70;99.90
3492;DHT22;1760;52.480;13.422;2024-02-14T12:15:20;8.70;99.90
3492;DHT22;1760;52.480;13.422;2024-02-14T12:17:47;8.70;99.90
3492;DHT22;1760;52.480;13.422;2024-02-14T12:20:15;8.80;99.90
3492;DHT22;1760;52.480;13.422;2024-02-14T12:22:42;8.80;99.90
3492;DHT22;1760;52.480;13.422;2024-02-14T12:25:10;8.80;99.90
3492;DHT22;1760;52.480;13.422;2024-02-14T12:27:37;8.80;99.90
3492;DHT22;1760;52.480;13.422;2024-02-14T12:30:06;8.80;99.90
3492;DHT22;1760;52.480;13.422;2024-02-14T12:32:33;8.80;99.90
3492;DHT22;1760;52.480;13.422;2024-02-14T12:35:00;8.80;99.90
3492;DHT22;1760;52.480;13.422;2024-02-14T12:37:29;8.80;99.90
3492;DHT22;1760;52.480;13.422;2024-02-14T12:39:56;8.80;99.90
3492;DHT22;1760;52.480;13.422;2024-02-14T12:42:25;8.80;99.90
3492;DHT22;1760;52.480;13.422;2024-02-14T12:44:54;8.80;99.90
3492;DHT22;1760;52.480;13.422;2024-02-14T12:47:22;8.80;99.90
3492;DHT22;1760;52.480;13.422;2024-02-14T12:49:51;8.90;99.90
3492;DHT22;1760;52.480;13.422;2024-02-14T12:52:18;8.90;99.90
3492;DHT22;1760;52.480;13.422;2024-02-14T12:54:45;9.00;99.90
3492;DHT22;1760;52.480;13.422;2024-02-14T12:57:13;9.00;99.90
3492;DHT22;1760;52.480;13.422;2024-02-14T12:59:41;9.00;99.90
3492;DHT22;1760;52.480;13.422;2024-02-14T13:02:08;9.00;99.90
3492;DHT22;1760;52.480;13.422;2024-02-14T13:04:36;9.10;99.90
3492;DHT22;1760;52.480;13.422;2024-02-14T13:07:05;9.10;99.90
3492;DHT22;1760;52.480;13.422;2024-02-14T13:09:34;9.10;99.90
3492;DHT22;1760;52.480;13.422;2024-02-14T13:12:05;9.10;99.90
3492;DHT22;1760;52.480;13.422;2024-02-14T13:14:35;9.10;99.90
3492;DHT22;1760;52.480;13.422;2024-02-14T13:17:07;9.10;99.90
3492;DHT22;1760;52.480;13.422;2024-02-14T13:19:36;9.10;99.90
3492;DHT22;1760;52.480;13.422;2024-02-14T13:22:04;9.10;99.90
3492;DHT22;1760;52.480;13.422;2024-02-14T13:24:31;9.10;99.90
3492;DHT22;1760;52.480;13.422;2024-02-14T13:26:58;9.10;99.90
3492;DHT22;1760;52.480;13.422;2024-02-14T13:29:25;9.10;99.90
3492;DHT22;1760;52.480;13.422;2024-02-14T13:31:53;9.20;99.90
3492;DHT22;1760;52.480;13.422;2024-02-14T13:34:22;9.20;99.90
3492;DHT22;1760;52.480;13.422;2024-02-14T13:36:49;9.30;99.90
3492;DHT22;1760;52.480;13.422;2024-02-14T13:39:16;9.20;99.90
3492;DHT22;1760;52.480;13.422;2024-02-14T13:41:44;9.30;99.90
3492;DHT22;1760;52.480;13.422;2024-02-14T13:44:11;9.50;99.90
3492;DHT22;1760;52.480;13.422;2024-02-14T13:46:38;9.50;99.90
3492;DHT22;1760;52.480;13.422;2024-02-14T13:49:10;9.40;99.90
3492;DHT22;1760;52.480;13.422;2024-02-14T13:51:46;9.40;99.90
3492;DHT22;1760;52.480;13.422;2024-02-14T13:54:13;9.40;99.90
3492;DHT22;1760;52.480;13.422;2024-02-14T13:56:41;9.40;99.90
3492;DHT22;1760;52.480;13.422;2024-02-14T13:59:12;9.50;99.90
3492;DHT22;1760;52.480;13.422;2024-02-14T14:01:40;9.50;99.90
3492;DHT22;1760;52.480;13.422;2024-02-14T14:04:10;9.50;99.90
3492;DHT22;1760;52.480;13.422;2024-02-14T14:06:38;9.50;99.90
3492;DHT22;1760;52.480;13.422;2024-02-14T14:09:07;9.50;99.90
3492;DHT22;1760;52.480;13.422;2024-02-14T14:11:39;9.50;99.90
3492;DHT22;1760;52.480;13.422;2024-02-14T14:14:07;9.50;99.90
3492;DHT22;1760;52.480;13.422;2024-02-14T14:16:37;9.50;99.90
3492;DHT22;1760;52.480;13.422;2024-02-14T14:19:07;9.50;99.90
3492;DHT22;1760;52.480;13.422;2024-02-14T14:21:37;9.40;99.90
3492;DHT22;1760;52.480;13.422;2024-02-14T14:24:06;9.40;99.90
3492;DHT22;1760;52.480;13.422;2024-02-14T14:26:35;9.40;99.90
3492;DHT22;1760;52.480;13.422;2024-02-14T14:29:03;9.40;99.90
3492;DHT22;1760;52.480;13.422;2024-02-14T14:31:30;9.50;99.90
3492;DHT22;1760;52.480;13.422;2024-02-14T14:33:57;9.50;99.90
3492;DHT22;1760;52.480;13.422;2024-02-14T14:36:27;9.60;99.90
3492;DHT22;1760;52.480;13.422;2024-02-14T14:38:53;9.60;99.90
3492;DHT22;1760;52.480;13.422;2024-02-14T14:41:22;9.70;99.90
3492;DHT22;1760;52.480;13.422;2024-02-14T14:43:49;9.70;99.90
3492;DHT22;1760;52.480;13.422;2024-02-14T14:46:16;9.80;99.90
3492;DHT22;1760;52.480;13.422;2024-02-14T14:48:43;9.70;99.90
3492;DHT22;1760;52.480;13.422;2024-02-14T14:51:10;9.80;99.90
3492;DHT22;1760;52.480;13.422;2024-02-14T14:53:37;9.80;99.90
3492;DHT22;1760;52.480;13.422;2024-02-14T14:56:04;9.80;99.90
3492;DHT22;1760;52.480;13.422;2024-02-14T14:58:35;9.80;99.90
3492;DHT22;1760;52.480;13.422;2024-02-14T15:01:03;9.90;99.90
3492;DHT22;1760;52.480;13.422;2024-02-14T15:03:30;10.00;99.90
3492;DHT22;1760;52.480;13.422;2024-02-14T15:05:58;10.00;99.90
3492;DHT22;1760;52.480;13.422;2024-02-14T15:08:25;10.00;99.90
3492;DHT22;1760;52.480;13.422;2024-02-14T15:10:53;10.00;99.90
3492;DHT22;1760;52.480;13.422;2024-02-14T15:13:21;10.10;99.90
3492;DHT22;1760;52.480;13.422;2024-02-14T15:15:49;10.00;99.90
3492;DHT22;1760;52.480;13.422;2024-02-14T15:18:19;10.10;99.90
3492;DHT22;1760;52.480;13.422;2024-02-14T15:20:46;10.10;99.90
3492;DHT22;1760;52.480;13.422;2024-02-14T15:23:13;10.00;99.90
3492;DHT22;1760;52.480;13.422;2024-02-14T15:25:41;10.10;99.90
3492;DHT22;1760;52.480;13.422;2024-02-14T15:28:09;10.10;99.90
3492;DHT22;1760;52.480;13.422;2024-02-14T15:30:39;10.20;99.90
3492;DHT22;1760;52.480;13.422;2024-02-14T15:33:25;10.10;99.90
3492;DHT22;1760;52.480;13.422;2024-02-14T15:35:54;10.10;99.90
3492;DHT22;1760;52.480;13.422;2024-02-14T15:38:22;10.20;99.90
3492;DHT22;1760;52.480;13.422;2024-02-14T15:40:56;10.20;99.90
3492;DHT22;1760;52.480;13.422;2024-02-14T15:43:26;10.20;99.90
3492;DHT22;1760;52.480;13.422;2024-02-14T15:45:54;10.20;99.90
3492;DHT22;1760;52.480;13.422;2024-02-14T15:48:22;10.20;99.90
3492;DHT22;1760;52.480;13.422;2024-02-14T15:50:52;10.20;99.90
3492;DHT22;1760;52.480;13.422;2024-02-14T15:53:19;10.20;99.90
3492;DHT22;1760;52.480;13.422;2024-02-14T15:55:46;10.20;99.90
3492;DHT22;1760;52.480;13.422;2024-02-14T15:58:13;10.30;99.90
3492;DHT22;1760;52.480;13.422;2024-02-14T16:00:40;10.20;99.90
3492;DHT22;1760;52.480;13.422;2024-02-14T16:03:08;10.30;99.90